createdAt,value
2023-04-07T00:01:23.478Z,7.08
2023-04-07T00:03:49.746Z,7.06
2023-04-07T00:06:16.037Z,7.11
2023-04-07T00:08:42.229Z,7.11
2023-04-07T00:11:08.427Z,7.11
2023-04-07T00:13:34.642Z,7.09
2023-04-07T00:16:00.816Z,7.09
2023-04-07T00:18:26.960Z,7.06
2023-04-07T00:20:53.201Z,7.08
2023-04-07T00:23:19.362Z,7.05
2023-04-07T00:25:45.594Z,7.05
2023-04-07T00:28:11.765Z,7.07
2023-04-07T00:30:37.962Z,7.09
2023-04-07T00:33:04.150Z,7.05
2023-04-07T00:35:30.420Z,7.05
2023-04-07T00:37:56.639Z,7.05
2023-04-07T00:40:22.806Z,7.03
2023-04-07T00:42:48.977Z,7.06
2023-04-07T00:45:15.116Z,7.04
2023-04-07T00:47:41.353Z,7.07
2023-04-07T00:50:07.536Z,7.05
2023-04-07T00:52:33.686Z,7.04
2023-04-07T00:54:59.912Z,7.04
2023-04-07T00:57:26.072Z,7.03
2023-04-07T00:59:52.272Z,7.02
2023-04-07T01:02:18.706Z,7.01
2023-04-07T01:04:45.165Z,7.00
2023-04-07T01:07:12.483Z,6.95
2023-04-07T01:09:38.669Z,6.97
2023-04-07T01:12:04.826Z,6.97
2023-04-07T01:14:30.969Z,6.96
2023-04-07T01:16:57.122Z,6.96
2023-04-07T01:19:23.294Z,6.98
2023-04-07T01:21:49.444Z,7.03
2023-04-07T01:24:15.639Z,7.04
2023-04-07T01:26:41.885Z,7.02
2023-04-07T01:29:08.093Z,6.97
2023-04-07T01:31:34.261Z,6.94
2023-04-07T01:34:00.470Z,6.93
2023-04-07T01:36:27.229Z,6.96
2023-04-07T01:38:53.370Z,6.94
2023-04-07T01:41:19.639Z,6.96
2023-04-07T01:43:46.373Z,6.94
2023-04-07T01:46:12.646Z,6.96
2023-04-07T01:48:38.789Z,6.94
2023-04-07T01:51:04.986Z,6.94
2023-04-07T01:53:31.135Z,6.99
2023-04-07T01:55:57.322Z,6.94
2023-04-07T01:58:23.464Z,6.98
2023-04-07T02:00:49.608Z,6.96
2023-04-07T02:03:17.917Z,6.97
2023-04-07T02:05:44.189Z,6.96
2023-04-07T02:08:10.342Z,6.99
2023-04-07T02:10:36.467Z,7.01
2023-04-07T02:13:02.633Z,7.02
2023-04-07T02:15:29.213Z,6.97
2023-04-07T02:17:55.388Z,6.99
2023-04-07T02:20:21.585Z,6.97
2023-04-07T02:22:47.725Z,6.99
2023-04-07T02:25:13.936Z,6.93
2023-04-07T02:27:40.078Z,6.92
2023-04-07T02:30:06.205Z,6.93
2023-04-07T02:32:32.392Z,6.92
2023-04-07T02:34:58.666Z,6.89
2023-04-07T02:37:24.841Z,6.89
2023-04-07T02:39:50.960Z,6.90
2023-04-07T02:42:17.111Z,6.91
2023-04-07T02:44:43.257Z,6.93
2023-04-07T02:47:09.395Z,6.95
2023-04-07T02:49:35.582Z,6.93
2023-04-07T02:52:01.722Z,7.01
2023-04-07T02:54:27.897Z,7.01
2023-04-07T02:56:54.075Z,7.02
2023-04-07T02:59:20.284Z,7.08
2023-04-07T03:01:46.529Z,7.04
2023-04-07T03:04:12.836Z,6.98
2023-04-07T03:06:39.167Z,6.93
2023-04-07T03:09:05.340Z,6.91
2023-04-07T03:11:31.540Z,6.90
2023-04-07T03:13:57.750Z,6.93
2023-04-07T03:16:24.038Z,7.07
2023-04-07T03:18:50.214Z,7.00
2023-04-07T03:21:16.416Z,7.01
2023-04-07T03:23:42.570Z,6.98
2023-04-07T03:26:08.712Z,7.00
2023-04-07T03:28:34.880Z,6.95
2023-04-07T03:31:01.098Z,6.98
2023-04-07T03:33:27.300Z,6.97
2023-04-07T03:35:53.553Z,6.96
2023-04-07T03:38:19.872Z,6.96
2023-04-07T03:40:46.068Z,7.02
2023-04-07T03:43:12.250Z,6.99
2023-04-07T03:45:38.404Z,7.04
2023-04-07T03:48:04.641Z,7.06
2023-04-07T03:50:30.835Z,7.03
2023-04-07T03:52:57.097Z,6.99
2023-04-07T03:55:23.268Z,7.02
2023-04-07T03:57:49.512Z,7.04
2023-04-07T04:00:15.655Z,7.02
2023-04-07T04:02:41.887Z,6.99
2023-04-07T04:05:08.069Z,6.97
2023-04-07T04:07:34.279Z,6.95
2023-04-07T04:10:00.449Z,6.96
2023-04-07T04:12:26.644Z,6.99
2023-04-07T04:14:52.798Z,7.01
2023-04-07T04:17:18.977Z,7.02
2023-04-07T04:19:45.135Z,6.98
2023-04-07T04:22:11.291Z,7.00
2023-04-07T04:24:37.413Z,6.97
2023-04-07T04:27:03.641Z,7.01
2023-04-07T04:29:31.665Z,6.95
2023-04-07T04:31:58.911Z,6.90
2023-04-07T04:34:25.080Z,6.86
2023-04-07T04:36:51.544Z,6.92
2023-04-07T04:39:17.777Z,6.90
2023-04-07T04:41:43.948Z,6.84
2023-04-07T04:44:10.374Z,6.76
2023-04-07T04:46:36.766Z,6.72
2023-04-07T04:49:02.982Z,6.75
2023-04-07T04:51:29.214Z,6.70
2023-04-07T04:53:55.684Z,6.67
2023-04-07T04:56:21.981Z,6.64
2023-04-07T04:58:48.194Z,6.60
2023-04-07T05:01:14.371Z,6.53
2023-04-07T05:03:40.648Z,6.48
2023-04-07T05:06:07.107Z,6.44
2023-04-07T05:08:33.325Z,6.44
2023-04-07T05:10:59.487Z,6.43
2023-04-07T05:13:25.657Z,6.46
2023-04-07T05:15:51.882Z,6.44
2023-04-07T05:18:18.090Z,6.43
2023-04-07T05:20:44.255Z,6.41
2023-04-07T05:23:10.406Z,6.39
2023-04-07T05:25:36.605Z,6.37
2023-04-07T05:28:02.806Z,6.37
2023-04-07T05:30:29.036Z,6.29
2023-04-07T05:32:55.348Z,6.26
2023-04-07T05:35:21.567Z,6.23
2023-04-07T05:37:47.739Z,6.23
2023-04-07T05:40:13.926Z,6.30
2023-04-07T05:42:40.095Z,6.30
2023-04-07T05:45:06.243Z,6.31
2023-04-07T05:47:32.389Z,6.31
2023-04-07T05:49:58.608Z,6.40
2023-04-07T05:52:24.763Z,6.37
2023-04-07T05:54:50.891Z,6.43
2023-04-07T05:57:17.172Z,6.48
2023-04-07T05:59:43.297Z,6.59
2023-04-07T06:02:09.549Z,6.59
2023-04-07T06:04:35.695Z,6.59
2023-04-07T06:07:01.832Z,6.73
2023-04-07T06:09:27.956Z,6.84
2023-04-07T06:11:54.159Z,6.96
2023-04-07T06:14:20.347Z,7.22
2023-04-07T06:16:46.525Z,7.40
2023-04-07T06:19:12.749Z,7.87
2023-04-07T06:21:38.908Z,8.30
2023-04-07T06:24:05.051Z,8.69
2023-04-07T06:26:31.252Z,9.19
2023-04-07T06:28:57.426Z,9.59
2023-04-07T06:31:23.700Z,9.98
2023-04-07T06:33:50.149Z,10.18
2023-04-07T06:36:16.637Z,10.07
2023-04-07T06:38:42.753Z,9.92
2023-04-07T06:41:08.922Z,9.81
2023-04-07T06:43:35.066Z,9.83
2023-04-07T06:46:01.286Z,9.75
2023-04-07T06:48:27.500Z,9.74
2023-04-07T06:50:53.674Z,9.65
2023-04-07T06:53:19.838Z,9.69
2023-04-07T06:55:46.061Z,9.67
2023-04-07T06:58:12.194Z,9.58
2023-04-07T07:00:38.343Z,9.80
2023-04-07T07:03:04.792Z,9.99
2023-04-07T07:05:31.076Z,10.09
2023-04-07T07:07:57.197Z,10.09
2023-04-07T07:10:23.431Z,10.18
2023-04-07T07:12:49.572Z,10.35
2023-04-07T07:15:15.740Z,10.44
2023-04-07T07:17:41.921Z,10.51
2023-04-07T07:20:08.108Z,10.59
2023-04-07T07:22:34.235Z,10.45
2023-04-07T07:25:00.384Z,10.69
2023-04-07T07:27:26.526Z,10.91
2023-04-07T07:29:52.648Z,10.85
2023-04-07T07:32:18.829Z,11.02
2023-04-07T07:34:45.034Z,11.09
2023-04-07T07:37:11.199Z,11.23
2023-04-07T07:39:37.350Z,11.23
2023-04-07T07:42:05.065Z,11.29
2023-04-07T07:44:32.541Z,11.69
2023-04-07T07:46:58.798Z,12.15
2023-04-07T07:49:24.975Z,12.40
2023-04-07T07:51:51.149Z,12.15
2023-04-07T07:54:17.349Z,12.20
2023-04-07T07:56:43.481Z,12.18
2023-04-07T07:59:09.626Z,12.42
2023-04-07T08:01:35.779Z,12.47
2023-04-07T08:04:01.965Z,12.55
2023-04-07T08:06:28.218Z,12.71
2023-04-07T08:08:54.390Z,13.09
2023-04-07T08:11:20.504Z,13.62
2023-04-07T08:13:47.082Z,14.21
2023-04-07T08:16:13.449Z,14.75
2023-04-07T08:18:39.639Z,15.99
2023-04-07T08:21:05.817Z,16.22
2023-04-07T08:23:31.940Z,16.48
2023-04-07T08:25:58.118Z,16.21
2023-04-07T08:28:24.347Z,16.49
2023-04-07T08:30:50.477Z,16.59
2023-04-07T08:33:16.632Z,15.94
2023-04-07T08:35:42.790Z,15.55
2023-04-07T08:38:08.971Z,16.51
2023-04-07T08:40:35.163Z,17.01
2023-04-07T08:43:01.283Z,17.21
2023-04-07T08:45:27.481Z,17.88
2023-04-07T08:47:53.717Z,18.11
2023-04-07T08:50:19.934Z,19.38
2023-04-07T08:52:46.194Z,19.07
2023-04-07T08:55:12.387Z,18.84
2023-04-07T08:57:38.553Z,19.83
2023-04-07T09:00:04.767Z,20.27
2023-04-07T09:02:31.057Z,20.71
2023-04-07T09:04:57.315Z,18.19
2023-04-07T09:07:23.490Z,17.21
2023-04-07T09:09:49.610Z,18.57
2023-04-07T09:12:15.748Z,19.29
2023-04-07T09:14:41.890Z,19.44
2023-04-07T09:17:08.009Z,18.26
2023-04-07T09:19:34.210Z,18.93
2023-04-07T09:22:00.380Z,18.97
2023-04-07T09:24:26.497Z,17.80
2023-04-07T09:26:52.679Z,17.24
2023-04-07T09:29:18.892Z,16.60
2023-04-07T09:31:45.084Z,16.02
2023-04-07T09:34:11.249Z,15.26
2023-04-07T09:36:37.371Z,15.97
2023-04-07T09:39:03.506Z,17.63
2023-04-07T09:41:29.661Z,17.67
2023-04-07T09:43:55.870Z,17.52
2023-04-07T09:46:22.849Z,16.45
2023-04-07T09:48:50.537Z,16.11
2023-04-07T09:51:16.713Z,17.19
2023-04-07T09:53:42.823Z,16.91
2023-04-07T09:56:09.017Z,16.74
2023-04-07T09:58:35.169Z,16.70
2023-04-07T10:01:01.393Z,16.03
2023-04-07T10:03:27.650Z,15.89
2023-04-07T10:05:53.891Z,15.84
2023-04-07T10:08:22.838Z,15.15
2023-04-07T10:10:49.008Z,14.81
2023-04-07T10:13:15.220Z,14.74
2023-04-07T10:15:41.430Z,14.67
2023-04-07T10:18:07.720Z,14.73
2023-04-07T10:20:33.957Z,14.59
2023-04-07T10:23:00.144Z,14.86
2023-04-07T10:25:26.360Z,14.69
2023-04-07T10:27:52.542Z,14.55
2023-04-07T10:30:18.729Z,14.56
2023-04-07T10:32:44.952Z,14.46
2023-04-07T10:35:11.238Z,14.39
2023-04-07T10:37:37.469Z,14.55
2023-04-07T10:40:03.770Z,14.40
2023-04-07T10:42:29.970Z,14.21
2023-04-07T10:44:56.087Z,13.86
2023-04-07T10:47:22.219Z,13.77
2023-04-07T10:49:48.333Z,13.79
2023-04-07T10:52:14.495Z,13.78
2023-04-07T10:54:40.610Z,13.61
2023-04-07T10:57:06.784Z,13.45
2023-04-07T10:59:32.984Z,13.30
2023-04-07T11:01:59.184Z,13.19
2023-04-07T11:04:25.673Z,13.31
2023-04-07T11:06:51.944Z,13.26
2023-04-07T11:09:18.080Z,13.54
2023-04-07T11:11:44.333Z,13.85
2023-04-07T11:14:10.531Z,13.86
2023-04-07T11:16:36.758Z,14.16
2023-04-07T11:19:03.005Z,14.48
2023-04-07T11:21:29.164Z,14.24
2023-04-07T11:23:55.314Z,14.32
2023-04-07T11:26:21.551Z,14.36
2023-04-07T11:28:47.748Z,14.59
2023-04-07T11:31:13.923Z,14.67
2023-04-07T11:33:40.109Z,15.41
2023-04-07T11:36:06.368Z,15.90
2023-04-07T11:38:32.589Z,17.18
2023-04-07T11:40:58.784Z,18.88
2023-04-07T11:43:24.908Z,19.30
2023-04-07T11:45:51.115Z,18.61
2023-04-07T11:48:17.269Z,17.98
2023-04-07T11:50:43.406Z,16.89
2023-04-07T11:53:09.808Z,15.93
2023-04-07T11:55:36.007Z,15.44
2023-04-07T11:58:02.131Z,15.30
2023-04-07T12:00:28.340Z,14.97
2023-04-07T12:02:54.671Z,14.86
2023-04-07T12:05:21.001Z,15.07
2023-04-07T12:07:47.219Z,15.32
2023-04-07T12:10:13.480Z,15.71
2023-04-07T12:12:39.640Z,17.45
2023-04-07T12:15:05.764Z,18.08
2023-04-07T12:17:31.963Z,17.14
2023-04-07T12:19:58.120Z,16.53
2023-04-07T12:22:24.278Z,16.66
2023-04-07T12:24:50.411Z,16.68
2023-04-07T12:27:16.598Z,15.84
2023-04-07T12:29:42.773Z,15.62
2023-04-07T12:32:09.022Z,15.50
2023-04-07T12:34:35.198Z,15.37
2023-04-07T12:37:01.354Z,15.24
2023-04-07T12:39:27.553Z,15.13
2023-04-07T12:41:53.770Z,15.33
2023-04-07T12:44:20.010Z,15.76
2023-04-07T12:46:46.214Z,15.04
2023-04-07T12:49:12.398Z,15.52
2023-04-07T12:51:38.509Z,15.48
2023-04-07T12:54:04.721Z,15.50
2023-04-07T12:56:30.861Z,15.24
2023-04-07T12:58:57.052Z,15.43
2023-04-07T13:01:23.271Z,15.46
2023-04-07T13:03:49.943Z,14.96
2023-04-07T13:06:16.369Z,14.95
2023-04-07T13:08:42.545Z,14.97
2023-04-07T13:11:08.710Z,14.90
2023-04-07T13:13:34.891Z,14.74
2023-04-07T13:16:01.065Z,14.76
2023-04-07T13:18:27.255Z,15.02
2023-04-07T13:21:10.734Z,14.53
2023-04-07T13:23:43.161Z,14.49
2023-04-07T13:26:09.958Z,14.50
2023-04-07T13:28:36.163Z,14.39
2023-04-07T13:31:02.380Z,14.68
2023-04-07T13:33:28.539Z,14.67
2023-04-07T13:35:54.742Z,14.65
2023-04-07T13:38:21.002Z,15.22
2023-04-07T13:40:47.172Z,15.30
2023-04-07T13:43:13.285Z,15.32
2023-04-07T13:45:39.477Z,14.97
2023-04-07T13:48:05.732Z,15.02
2023-04-07T13:50:31.973Z,15.10
2023-04-07T13:52:58.157Z,15.03
2023-04-07T13:55:24.402Z,15.05
2023-04-07T13:57:50.641Z,14.97
2023-04-07T14:00:16.776Z,14.41
2023-04-07T14:02:43.078Z,14.20
2023-04-07T14:05:09.332Z,14.00
2023-04-07T14:07:35.537Z,13.89
2023-04-07T14:10:01.697Z,14.09
2023-04-07T14:12:27.867Z,14.08
2023-04-07T14:14:54.057Z,15.17
2023-04-07T14:17:20.428Z,16.88
2023-04-07T14:19:50.841Z,17.49
2023-04-07T14:22:17.159Z,17.75
2023-04-07T14:24:44.245Z,17.09
2023-04-07T14:27:10.422Z,16.61
2023-04-07T14:29:38.557Z,16.45
2023-04-07T14:32:04.771Z,16.70
2023-04-07T14:34:30.885Z,15.89
2023-04-07T14:36:57.155Z,15.50
2023-04-07T14:39:23.351Z,16.28
2023-04-07T14:41:49.508Z,17.22
2023-04-07T14:44:20.129Z,17.22
2023-04-07T14:46:46.329Z,15.72
2023-04-07T14:49:12.574Z,15.68
2023-04-07T14:51:38.771Z,15.30
2023-04-07T14:54:04.954Z,15.81
2023-04-07T14:56:31.125Z,17.14
2023-04-07T14:58:57.332Z,16.30
2023-04-07T15:01:23.513Z,15.78
2023-04-07T15:03:49.922Z,14.64
2023-04-07T15:06:16.308Z,14.06
2023-04-07T15:08:42.458Z,14.06
2023-04-07T15:11:08.595Z,15.15
2023-04-07T15:13:34.779Z,16.51
2023-04-07T15:16:00.978Z,15.99
2023-04-07T15:18:27.205Z,15.54
2023-04-07T15:20:53.419Z,14.96
2023-04-07T15:23:19.645Z,14.37
2023-04-07T15:25:45.880Z,14.12
2023-04-07T15:28:12.000Z,13.65
2023-04-07T15:30:38.229Z,13.65
2023-04-07T15:33:04.443Z,13.47
2023-04-07T15:35:30.626Z,13.35
2023-04-07T15:37:56.783Z,13.32
2023-04-07T15:40:22.942Z,13.49
2023-04-07T15:42:49.086Z,13.53
2023-04-07T15:45:15.256Z,13.69
2023-04-07T15:47:41.416Z,13.78
2023-04-07T15:50:07.684Z,13.57
2023-04-07T15:52:33.887Z,13.50
2023-04-07T15:55:00.037Z,13.13
2023-04-07T15:57:26.187Z,13.02
2023-04-07T15:59:52.332Z,12.90
2023-04-07T16:02:18.601Z,12.83
2023-04-07T16:04:44.903Z,12.75
2023-04-07T16:07:11.066Z,12.95
2023-04-07T16:09:37.234Z,13.20
2023-04-07T16:12:03.377Z,13.21
2023-04-07T16:14:29.670Z,13.08
2023-04-07T16:16:55.947Z,13.09
2023-04-07T16:19:22.118Z,12.98
2023-04-07T16:21:48.285Z,12.79
2023-04-07T16:24:14.427Z,12.77
2023-04-07T16:26:40.553Z,12.54
2023-04-07T16:29:06.761Z,12.54
2023-04-07T16:31:32.904Z,12.39
2023-04-07T16:33:59.099Z,12.32
2023-04-07T16:36:25.240Z,12.36
2023-04-07T16:38:51.353Z,12.08
2023-04-07T16:41:17.517Z,12.01
2023-04-07T16:43:43.697Z,11.98
2023-04-07T16:46:09.891Z,11.95
2023-04-07T16:48:36.090Z,12.06
2023-04-07T16:51:02.266Z,11.84
2023-04-07T16:53:28.403Z,11.73
2023-04-07T16:55:54.594Z,11.60
2023-04-07T16:58:20.810Z,11.51
2023-04-07T17:00:46.943Z,11.37
2023-04-07T17:03:13.264Z,11.24
2023-04-07T17:05:39.566Z,11.17
2023-04-07T17:08:05.739Z,11.12
2023-04-07T17:10:31.968Z,11.08
2023-04-07T17:12:58.195Z,11.05
2023-04-07T17:15:24.395Z,11.01
2023-04-07T17:17:50.657Z,11.01
2023-04-07T17:20:16.910Z,11.00
2023-04-07T17:22:43.119Z,10.97
2023-04-07T17:25:09.314Z,10.94
2023-04-07T17:27:35.459Z,10.94
2023-04-07T17:30:01.696Z,10.94
2023-04-07T17:32:27.894Z,10.96
2023-04-07T17:34:54.068Z,10.88
2023-04-07T17:37:20.254Z,11.07
2023-04-07T17:39:46.460Z,11.01
2023-04-07T17:42:12.601Z,10.99
2023-04-07T17:44:38.713Z,11.00
2023-04-07T17:47:04.910Z,10.97
2023-04-07T17:49:31.132Z,10.94
2023-04-07T17:51:57.293Z,10.98
2023-04-07T17:54:23.404Z,10.95
2023-04-07T17:56:49.615Z,10.90
2023-04-07T17:59:15.834Z,10.95
2023-04-07T18:01:42.167Z,10.91
2023-04-07T18:04:08.527Z,10.86
2023-04-07T18:06:34.815Z,10.81
2023-04-07T18:09:00.973Z,10.80
2023-04-07T18:11:27.173Z,10.83
2023-04-07T18:13:53.315Z,10.78
2023-04-07T18:16:21.440Z,10.83
2023-04-07T18:18:48.489Z,10.78
2023-04-07T18:21:14.628Z,10.78
2023-04-07T18:23:40.806Z,10.75
2023-04-07T18:26:07.198Z,10.75
2023-04-07T18:28:33.360Z,10.78
2023-04-07T18:30:59.601Z,10.74
2023-04-07T18:33:25.854Z,10.74
2023-04-07T18:35:52.112Z,10.71
2023-04-07T18:38:18.348Z,10.73
2023-04-07T18:40:44.524Z,10.69
2023-04-07T18:43:10.661Z,10.69
2023-04-07T18:45:36.987Z,10.69
2023-04-07T18:48:03.455Z,10.70
2023-04-07T18:50:29.633Z,10.68
2023-04-07T18:52:55.818Z,10.66
2023-04-07T18:55:22.012Z,10.63
2023-04-07T18:57:49.413Z,10.65
2023-04-07T19:00:15.548Z,10.60
2023-04-07T19:02:41.921Z,10.59
2023-04-07T19:05:08.173Z,10.59
2023-04-07T19:07:34.907Z,10.60
2023-04-07T19:10:01.122Z,10.55
2023-04-07T19:12:27.314Z,10.57
2023-04-07T19:14:53.544Z,10.53
2023-04-07T19:17:19.808Z,10.50
2023-04-07T19:19:46.006Z,10.49
2023-04-07T19:22:12.144Z,10.43
2023-04-07T19:24:38.284Z,10.36
2023-04-07T19:27:04.468Z,10.40
2023-04-07T19:29:30.717Z,10.38
2023-04-07T19:31:57.027Z,10.33
2023-04-07T19:34:23.270Z,10.35
2023-04-07T19:36:49.464Z,10.33
2023-04-07T19:39:15.658Z,10.33
2023-04-07T19:41:41.889Z,10.30
2023-04-07T19:44:08.062Z,10.27
2023-04-07T19:46:34.302Z,10.22
2023-04-07T19:49:00.434Z,10.20
2023-04-07T19:51:26.594Z,10.16
2023-04-07T19:53:52.790Z,10.17
2023-04-07T19:56:18.963Z,10.15
2023-04-07T19:58:45.160Z,10.16
2023-04-07T20:01:11.431Z,10.09
2023-04-07T20:03:37.838Z,10.01
2023-04-07T20:06:04.083Z,10.00
2023-04-07T20:08:30.313Z,9.97
2023-04-07T20:10:56.497Z,9.99
2023-04-07T20:13:22.712Z,9.98
2023-04-07T20:15:48.955Z,9.96
2023-04-07T20:18:15.179Z,9.94
2023-04-07T20:20:41.342Z,9.95
2023-04-07T20:23:07.561Z,9.94
2023-04-07T20:25:33.729Z,9.98
2023-04-07T20:27:59.909Z,9.95
2023-04-07T20:30:26.163Z,9.89
2023-04-07T20:32:52.335Z,9.89
2023-04-07T20:35:18.586Z,9.88
2023-04-07T20:37:44.892Z,9.91
2023-04-07T20:40:11.285Z,9.89
2023-04-07T20:42:37.505Z,9.92
2023-04-07T20:45:03.738Z,9.86
2023-04-07T20:47:30.067Z,9.83
2023-04-07T20:49:56.225Z,9.81
2023-04-07T20:52:22.413Z,9.88
2023-04-07T20:54:48.607Z,9.82
2023-04-07T20:57:14.775Z,9.78
2023-04-07T20:59:40.962Z,9.76
2023-04-07T21:02:07.289Z,9.74
2023-04-07T21:04:33.658Z,9.70
2023-04-07T21:06:59.842Z,9.65
2023-04-07T21:09:25.985Z,9.59
2023-04-07T21:11:52.174Z,9.52
2023-04-07T21:14:18.314Z,9.52
2023-04-07T21:16:44.495Z,9.46
2023-04-07T21:19:10.645Z,9.42
2023-04-07T21:21:36.849Z,9.30
2023-04-07T21:24:02.979Z,9.19
2023-04-07T21:26:29.104Z,9.11
2023-04-07T21:28:55.303Z,9.09
2023-04-07T21:31:21.608Z,8.98
2023-04-07T21:33:47.962Z,8.95
2023-04-07T21:36:14.120Z,8.90
2023-04-07T21:38:40.308Z,8.85
2023-04-07T21:41:06.447Z,8.81
2023-04-07T21:43:32.642Z,8.79
2023-04-07T21:45:58.855Z,8.79
2023-04-07T21:48:25.065Z,8.76
2023-04-07T21:50:51.272Z,8.78
2023-04-07T21:53:17.415Z,8.81
2023-04-07T21:55:43.553Z,8.87
2023-04-07T21:58:09.753Z,8.79
2023-04-07T22:00:35.947Z,8.81
2023-04-07T22:03:02.284Z,8.66
2023-04-07T22:05:28.538Z,8.60
2023-04-07T22:07:54.731Z,8.57
2023-04-07T22:10:20.928Z,8.42
2023-04-07T22:12:47.102Z,8.30
2023-04-07T22:15:13.262Z,8.23
2023-04-07T22:17:39.530Z,8.10
2023-04-07T22:20:05.678Z,8.05
2023-04-07T22:22:31.853Z,7.99
2023-04-07T22:24:57.989Z,7.85
2023-04-07T22:27:24.125Z,7.70
2023-04-07T22:29:50.343Z,7.58
2023-04-07T22:32:16.567Z,7.46
2023-04-07T22:34:42.756Z,7.36
2023-04-07T22:37:08.890Z,7.26
2023-04-07T22:39:35.050Z,7.15
2023-04-07T22:42:01.180Z,7.04
2023-04-07T22:44:27.347Z,6.91
2023-04-07T22:46:53.539Z,6.84
2023-04-07T22:49:19.757Z,6.75
2023-04-07T22:51:45.937Z,6.69
2023-04-07T22:54:12.109Z,6.66
2023-04-07T22:56:38.260Z,6.72
2023-04-07T22:59:04.455Z,6.75
2023-04-07T23:01:30.604Z,6.82
2023-04-07T23:03:56.806Z,6.95
2023-04-07T23:06:22.981Z,7.05
2023-04-07T23:08:49.311Z,7.10
2023-04-07T23:11:15.622Z,7.14
2023-04-07T23:13:41.750Z,7.16
2023-04-07T23:16:07.915Z,7.17
2023-04-07T23:18:34.105Z,7.18
2023-04-07T23:21:00.236Z,7.18
2023-04-07T23:23:26.685Z,7.15
2023-04-07T23:25:52.900Z,7.09
2023-04-07T23:28:19.104Z,6.97
2023-04-07T23:30:45.246Z,6.87
2023-04-07T23:33:11.395Z,6.74
2023-04-07T23:35:37.648Z,6.83
2023-04-07T23:38:03.832Z,6.86
2023-04-07T23:40:29.967Z,6.88
2023-04-07T23:42:56.163Z,6.92
2023-04-07T23:45:22.320Z,6.92
2023-04-07T23:47:48.552Z,6.96
2023-04-07T23:50:14.746Z,7.02
2023-04-07T23:52:42.703Z,7.11
2023-04-07T23:55:08.848Z,7.23
2023-04-07T23:57:35.039Z,7.32
